Latest Weather Observations for Kilmore Gap

IDV60801

Issued at 5:35 am EST Thursday 24 July 2014 (issued every 30 minutes, with the page automatically refreshed every 10 minutes)

About weather observations | Map of weather stations | Latest weather observations for VIC | Other Formats
Station Details ID: 088162 Name: KILMORE GAP Lat: -37.38 Lon: 144.97 Height: 527.8 m
Data from the previous 72 hours. | See also: Recent months at Kilmore Gap
Date/Time
EST
Temp
°C
App
Temp
°C
Dew
Point
Rel
Hum
%
Delta-T
°C
Wind Press
QNH
hPa
Press
MSL
hPa
Rain
since 9 am
mm
Dir
 
Spd
km/h
Gust
km/h
Spd
kts
Gust
kts
24/05:30am 6.1 1.4 6.0 99 0.0 NNE 20 24 11 13 1015.8 - 0.4
24/05:00am 5.9 0.8 5.8 99 0.0 N 22 26 12 14 1015.9 - 0.2
24/04:30am 5.7 0.1 5.6 99 0.0 N 24 32 13 17 1015.9 - 0.2
24/04:00am 6.0 -0.3 5.9 99 0.0 N 28 32 15 17 1015.9 - 0.2
24/03:30am 6.2 -0.8 6.2 100 0.0 N 32 37 17 20 1015.8 - 0.2
24/03:00am 5.8 -0.5 5.8 100 0.0 N 28 33 15 18 1015.9 1017.0 0.2
24/02:30am 5.8 -0.1 5.7 99 0.0 N 26 32 14 17 1016.2 - 0.2
24/02:00am 5.7 0.9 5.7 100 0.0 N 20 24 11 13 1016.8 - 0.2
24/01:30am 5.9 1.1 5.8 99 0.0 N 20 24 11 13 1016.9 - 0.2
24/01:00am 5.9 0.4 5.9 100 0.0 N 24 30 13 16 1017.1 - 0.2
24/12:39am 5.6 -0.3 5.6 100 0.0 N 26 30 14 16 1017.0 - 0.2
24/12:30am 5.6 -0.3 5.6 100 0.0 N 26 32 14 17 1017.1 - 0.2
24/12:00am 5.4 -0.6 5.4 100 0.0 N 26 32 14 17 1017.4 1018.4 0.2
 
Date/Time
EST
Temp
°C
App
Temp
°C
Dew
Point
Rel
Hum
%
Delta-T
°C
Wind Press
QNH
hPa
Press
MSL
hPa
Rain
since 9 am
mm
Dir
 
Spd
km/h
Gust
km/h
Spd
kts
Gust
kts
23/11:46pm 5.4 -1.0 5.4 100 0.0 N 28 32 15 17 1017.5 - 0.2
23/11:36pm 5.5 -0.8 5.5 100 0.0 N 28 32 15 17 1017.7 - 0.2
23/11:30pm 5.5 -0.8 5.5 100 0.0 N 28 32 15 17 1017.7 - 0.2
23/11:14pm 5.4 -1.0 5.4 100 0.0 N 28 33 15 18 1017.9 - 0.2
23/11:00pm 5.3 -1.5 5.2 99 0.0 N 30 35 16 19 1018.0 - 0.2
23/10:30pm 5.3 -1.1 5.3 100 0.0 NNE 28 35 15 19 1018.2 - 0.2
23/10:08pm 5.0 -1.1 5.0 100 0.0 N 26 30 14 16 1018.6 - 0.2
23/10:00pm 5.2 -0.8 5.2 100 0.0 NNE 26 32 14 17 1018.7 - 0.2
23/09:30pm 5.7 -1.0 5.7 100 0.0 NNE 30 33 16 18 1018.9 - 0.2
23/09:00pm 5.5 -1.6 5.5 100 0.0 N 32 39 17 21 1018.9 1019.9 0.2
23/08:30pm 5.2 -1.2 5.2 100 0.0 N 28 33 15 18 1019.0 - 0.2
23/08:00pm 4.9 -0.8 4.9 100 0.0 N 24 30 13 16 1019.1 - 0.2
23/07:30pm 5.1 -0.6 5.0 99 0.0 NNE 24 30 13 16 1019.1 - 0.2
23/07:00pm 5.3 -0.3 5.2 99 0.0 N 24 30 13 16 1019.1 - 0.2
23/06:30pm 5.4 -0.6 5.3 99 0.0 N 26 32 14 17 1019.0 - 0.2
23/06:00pm 5.7 0.5 5.6 99 0.0 N 22 26 12 14 1019.1 1020.2 0.2
23/05:30pm 6.3 0.8 5.9 97 0.2 N 24 32 13 17 1018.7 - 0.2
23/05:00pm 7.1 1.7 6.2 94 0.4 N 24 30 13 16 1018.9 - 0.2
23/04:30pm 7.3 1.0 5.9 91 0.7 NNE 28 35 15 19 1018.8 - 0.2
23/04:00pm 7.2 0.9 5.8 91 0.6 N 28 35 15 19 1018.9 - 0.2
23/03:30pm 7.4 1.5 5.7 89 0.8 N 26 33 14 18 1019.1 - 0.2
23/03:00pm 8.0 2.1 5.6 85 1.1 N 26 33 14 18 1019.1 1020.2 0.2
23/02:30pm 7.3 0.8 4.6 83 1.2 N 28 37 15 20 1019.2 - 0.2
23/02:00pm 7.5 0.0 4.6 82 1.3 N 33 43 18 23 1019.4 - 0.2
23/01:30pm 8.4 1.3 5.7 83 1.3 N 32 37 17 20 1019.8 - 0.0
23/01:00pm 7.4 -0.1 4.7 83 1.2 N 33 43 18 23 1020.1 - 0.0
23/12:30pm 7.1 -0.7 4.9 86 1.0 N 35 44 19 24 1020.8 - 0.0
23/12:00pm 7.0 -0.8 5.0 87 0.9 N 35 44 19 24 1021.4 1022.5 0.0
23/11:30am 6.8 -1.4 5.0 88 0.8 N 37 44 20 24 1021.8 - 0.0
23/11:00am 7.2 0.1 5.7 90 0.7 N 32 41 17 22 1022.2 - 0.0
23/10:30am 6.5 -0.3 5.3 92 0.5 N 30 35 16 19 1022.6 - 0.0
23/10:00am 6.0 -1.2 4.8 92 0.5 N 32 37 17 20 1022.7 - 0.0
23/09:30am 5.3 -2.1 3.8 90 0.7 N 32 37 17 20 1022.6 - 0.0
23/09:00am 4.5 -2.6 3.6 94 0.4 N 30 35 16 19 1022.6 1023.7 0.2
23/08:30am 4.2 -2.6 3.2 93 0.4 N 28 33 15 18 1022.4 - 0.2
23/08:00am 4.0 -2.7 3.4 96 0.3 N 28 32 15 17 1022.6 - 0.2
23/07:30am 3.9 -2.4 3.5 97 0.2 N 26 30 14 16 1022.4 - 0.2
23/07:00am 3.8 -2.2 3.5 98 0.1 NNE 24 26 13 14 1022.2 - 0.2
23/06:30am 4.1 -2.2 3.5 96 0.3 NNE 26 28 14 15 1022.1 - 0.2
23/06:00am 4.0 -2.0 3.4 96 0.3 NNE 24 28 13 15 1021.9 1023.0 0.2
23/05:30am 3.8 -2.1 3.7 99 0.0 NNE 24 26 13 14 1021.9 - 0.2
23/05:00am 4.2 -1.3 3.8 97 0.2 NNE 22 26 12 14 1022.0 - 0.2
23/04:30am 4.9 -0.7 3.6 91 0.6 N 22 26 12 14 1022.0 - 0.2
23/04:00am 4.5 -0.7 3.5 93 0.4 NNE 20 22 11 12 1022.1 - 0.2
23/03:30am 4.4 -0.2 3.8 96 0.3 N 17 19 9 10 1022.4 - 0.2
23/03:00am 4.9 1.1 3.9 93 0.4 N 13 15 7 8 1022.8 1023.9 0.2
23/02:30am 5.3 1.6 4.3 93 0.4 N 13 15 7 8 1022.9 - 0.2
23/02:00am 6.0 3.1 4.5 90 0.7 NNE 9 11 5 6 1022.8 - 0.2
23/01:30am 5.3 3.1 5.3 100 0.0 NNE 6 6 3 3 1022.8 - 0.2
23/01:07am 5.8 4.8 5.8 100 0.0 CALM 0 9 0 5 1022.9 - 0.2
23/01:00am 5.8 4.8 5.8 100 0.0 CALM 0 0 0 0 1022.9 - 0.2
23/12:30am 4.5 3.3 4.5 100 0.0 CALM 0 0 0 0 1023.2 - 0.2
23/12:00am 3.9 2.6 3.9 100 0.0 CALM 0 0 0 0 1023.5 1024.6 0.2
 
Date/Time
EST
Temp
°C
App
Temp
°C
Dew
Point
Rel
Hum
%
Delta-T
°C
Wind Press
QNH
hPa
Press
MSL
hPa
Rain
since 9 am
mm
Dir
 
Spd
km/h
Gust
km/h
Spd
kts
Gust
kts
22/11:30pm 4.0 1.0 4.0 100 0.0 WSW 9 11 5 6 1023.6 - 0.0
22/11:00pm 4.8 1.5 4.8 100 0.0 S 11 15 6 8 1023.7 - 0.0
22/10:30pm 4.6 1.3 4.6 100 0.0 SSW 11 15 6 8 1023.9 - 0.0
22/10:20pm 4.8 1.2 4.8 100 0.0 SSW 13 15 7 8 1024.0 - 0.0
22/10:04pm 3.8 0.0 3.8 100 0.0 SW 13 17 7 9 1024.0 - 0.0
22/10:00pm 3.9 0.1 3.9 100 0.0 SW 13 17 7 9 1024.0 - 0.0
22/09:56pm 4.3 0.2 4.3 100 0.0 SSW 15 17 8 9 1024.0 - 0.0
22/09:30pm 3.7 -0.1 3.7 100 0.0 S 13 17 7 9 1023.8 - 0.0
22/09:15pm 4.5 0.4 4.5 100 0.0 S 15 17 8 9 1023.7 - 0.0
22/09:00pm 4.5 0.4 4.5 100 0.0 S 15 19 8 10 1023.7 1024.8 0.0
22/08:30pm 4.5 0.8 4.5 100 0.0 S 13 17 7 9 1023.7 - 0.0
22/08:02pm 4.5 1.2 4.5 100 0.0 SSE 11 17 6 9 1023.5 - 0.0
22/08:00pm 4.6 1.3 4.6 100 0.0 SSE 11 17 6 9 1023.4 - 0.0
22/07:30pm 4.4 1.4 4.3 99 0.0 SSE 9 13 5 7 1023.4 - 0.0
22/07:09pm 3.9 0.5 3.9 100 0.0 S 11 13 6 7 1023.3 - 0.0
22/07:00pm 3.7 -0.1 3.7 100 0.0 S 13 15 7 8 1023.3 - 0.0
22/06:54pm 3.8 0.0 3.8 100 0.0 S 13 15 7 8 1023.3 - 0.0
22/06:30pm 3.4 -0.1 3.4 100 0.0 S 11 15 6 8 1023.2 - 0.0
22/06:07pm 3.2 -0.7 3.2 100 0.0 S 13 17 7 9 1023.2 - 0.0
22/06:01pm 3.3 -0.6 3.3 100 0.0 S 13 17 7 9 1023.2 - 0.0
22/06:00pm 3.3 -0.2 3.3 100 0.0 S 11 17 6 9 1023.2 1024.3 0.0
22/05:30pm 4.0 0.6 4.0 100 0.0 SSW 11 13 6 7 1023.2 - 0.0
22/05:00pm 4.3 1.0 4.3 100 0.0 S 11 13 6 7 1023.3 - 0.0
22/04:30pm 4.7 1.4 4.7 100 0.0 S 11 15 6 8 1023.3 - 0.0
22/04:00pm 5.0 1.8 5.0 100 0.0 S 11 15 6 8 1023.3 - 0.0
22/03:30pm 5.0 2.2 5.0 100 0.0 SSE 9 15 5 8 1023.4 - 0.0
22/03:00pm 5.0 1.8 5.0 100 0.0 SSE 11 17 6 9 1023.5 1024.6 0.0
22/02:30pm 5.3 2.1 5.3 100 0.0 SSE 11 15 6 8 1023.6 - 0.0
22/02:00pm 5.7 3.0 5.7 100 0.0 S 9 13 5 7 1023.8 - 0.0
22/01:30pm 6.2 3.6 6.2 100 0.0 S 9 13 5 7 1024.0 - 0.0
22/01:00pm 6.0 3.4 6.0 100 0.0 S 9 13 5 7 1024.2 - 0.0
22/12:49pm 6.9 4.1 6.8 99 0.0 S 11 15 6 8 1024.3 - 0.0
22/12:43pm 7.5 4.8 7.5 100 0.0 SSW 11 15 6 8 1024.4 - 0.0
22/12:30pm 6.8 3.8 6.2 96 0.3 SSW 11 15 6 8 1024.7 - 0.0
22/12:00pm 7.5 5.6 7.4 99 0.0 SSW 7 11 4 6 1024.9 1026.0 0.0
22/11:47am 6.7 4.6 6.6 99 0.0 SW 7 11 4 6 1025.0 - 0.0
22/11:30am 7.1 5.1 7.1 100 0.0 S 7 9 4 5 1025.1 - 0.0
22/11:10am 5.9 3.3 5.9 100 0.0 SW 9 11 5 6 1025.3 - 0.0
22/11:00am 5.5 2.4 5.5 100 0.0 WSW 11 13 6 7 1025.4 - 0.0
22/10:30am 5.0 1.8 5.0 100 0.0 SW 11 13 6 7 1025.5 - 0.0
22/10:00am 5.1 2.7 5.1 100 0.0 SSW 7 13 4 7 1025.4 - 0.0
22/09:30am 4.8 1.9 4.8 100 0.0 SW 9 13 5 7 1025.3 - 0.0
22/09:00am 4.8 1.9 4.8 100 0.0 S 9 11 5 6 1024.9 1026.0 0.2
22/08:47am 4.6 1.3 4.6 100 0.0 S 11 15 6 8 1024.7 - 0.2
22/08:30am 4.5 1.2 4.5 100 0.0 S 11 13 6 7 1024.7 - 0.2
22/08:00am 3.6 0.1 3.6 100 0.0 SW 11 13 6 7 1024.6 - 0.2
22/07:39am 3.7 0.6 3.7 100 0.0 SW 9 11 5 6 1024.6 - 0.2
22/07:30am 3.7 0.6 3.7 100 0.0 SW 9 13 5 7 1024.4 - 0.2
22/07:00am 3.8 0.7 3.8 100 0.0 SSW 9 11 5 6 1024.1 - 0.2
22/06:52am 4.4 1.5 4.4 100 0.0 S 9 11 5 6 1024.1 - 0.2
22/06:30am 4.1 1.1 4.1 100 0.0 S 9 9 5 5 1023.9 - 0.2
22/06:00am 4.3 1.7 4.3 100 0.0 SSE 7 9 4 5 1023.7 1024.8 0.2
22/05:30am 4.5 2.0 4.5 100 0.0 SE 7 9 4 5 1023.5 - 0.2
22/05:00am 4.2 0.8 4.2 100 0.0 SSE 11 13 6 7 1023.5 - 0.2
22/04:56am 4.2 0.8 4.2 100 0.0 SSE 11 11 6 6 1023.5 - 0.2
22/04:55am 4.2 0.8 4.2 100 0.0 SSE 11 11 6 6 1023.5 - 0.2
22/04:30am 4.4 1.5 4.4 100 0.0 SSE 9 11 5 6 1023.5 - 0.0
22/04:24am 4.3 1.0 4.3 100 0.0 SSE 11 15 6 8 1023.4 - 0.0
22/04:00am 3.2 0.0 3.2 100 0.0 SSE 9 13 5 7 1023.3 - 0.0
22/03:30am 3.5 0.4 3.5 100 0.0 SSW 9 13 5 7 1023.5 - 0.0
22/03:00am 4.4 1.1 4.4 100 0.0 S 11 13 6 7 1023.6 1024.7 0.0
22/02:36am 3.7 -0.1 3.7 100 0.0 SW 13 15 7 8 1023.8 - 0.0
22/02:30am 3.8 0.0 3.8 100 0.0 SW 13 17 7 9 1023.7 - 0.0
22/02:17am 3.9 0.1 3.8 99 0.0 SW 13 15 7 8 1023.7 - 0.0
22/02:00am 4.0 0.2 3.9 99 0.0 SW 13 17 7 9 1023.8 - 0.0
22/01:30am 4.8 1.5 4.7 99 0.0 S 11 13 6 7 1023.8 - 0.0
22/01:00am 4.5 0.8 4.4 99 0.0 S 13 15 7 8 1023.8 - 0.0
22/12:30am 5.4 2.2 5.3 99 0.0 S 11 13 6 7 1024.2 - 0.0
22/12:00am 4.9 2.0 4.8 99 0.0 S 9 11 5 6 1024.1 1025.3 0.0
 
Date/Time
EST
Temp
°C
App
Temp
°C
Dew
Point
Rel
Hum
%
Delta-T
°C
Wind Press
QNH
hPa
Press
MSL
hPa
Rain
since 9 am
mm
Dir
 
Spd
km/h
Gust
km/h
Spd
kts
Gust
kts
21/11:30pm 5.4 3.0 5.1 98 0.1 SSE 7 11 4 6 1024.2 - 0.0
21/11:00pm 5.3 2.9 5.2 99 0.0 SSE 7 9 4 5 1024.2 - 0.0
21/10:30pm 5.5 3.3 5.4 99 0.0 S 6 7 3 4 1024.3 - 0.0
21/10:00pm 5.6 4.6 5.5 99 0.0 CALM 0 0 0 0 1024.2 - 0.0
21/09:30pm 5.3 3.8 4.9 97 0.2 WNW 2 7 1 4 1024.3 - 0.0
21/09:00pm 5.6 3.4 5.3 98 0.1 SSE 6 7 3 4 1024.2 1025.4 0.0
21/08:30pm 5.5 3.0 4.8 95 0.3 ESE 7 9 4 5 1024.2 - 0.0
21/08:00pm 5.8 2.9 4.9 94 0.4 E 9 9 5 5 1024.3 - 0.0
21/07:30pm 5.8 2.9 4.4 91 0.6 E 9 11 5 6 1024.2 - 0.0
21/07:00pm 5.9 2.9 4.2 89 0.7 E 9 11 5 6 1024.0 - 0.0
21/06:30pm 6.2 3.3 4.5 89 0.8 E 9 9 5 5 1023.8 - 0.0
21/06:00pm 6.2 3.7 4.5 89 0.8 NE 7 9 4 5 1023.7 1024.8 0.0
21/05:30pm 6.1 3.2 4.6 90 0.7 NNE 9 9 5 5 1023.6 - 0.0
21/05:00pm 6.5 3.6 4.8 89 0.8 NNE 9 9 5 5 1023.6 - 0.0
21/04:30pm 6.9 4.1 5.1 88 0.8 NNE 9 13 5 7 1023.6 - 0.0
21/04:00pm 7.4 4.4 5.9 90 0.7 NNE 11 13 6 7 1023.6 - 0.0
21/03:30pm 7.4 3.5 5.2 86 1.0 N 15 17 8 9 1023.6 - 0.0
21/03:00pm 7.7 3.9 5.7 87 0.9 N 15 19 8 10 1023.5 1024.6 0.0
21/02:30pm 7.9 3.7 5.9 87 0.9 N 17 20 9 11 1023.5 - 0.0
21/02:00pm 7.6 3.8 5.7 88 0.9 N 15 24 8 13 1023.6 - 0.0
21/01:30pm 7.8 3.6 5.8 87 0.9 N 17 22 9 12 1023.8 - 0.0
21/01:27pm 7.6 3.4 5.9 89 0.8 N 17 22 9 12 1023.9 - 0.0
21/01:15pm 7.5 3.0 6.0 90 0.7 N 19 24 10 13 1023.9 - 0.0
21/01:00pm 7.6 2.9 6.2 91 0.7 N 20 24 11 13 1024.0 - 0.0
21/12:30pm 7.2 2.2 6.3 94 0.4 N 22 28 12 15 1024.3 - 0.0
21/12:00pm 7.0 2.0 6.4 96 0.3 N 22 26 12 14 1024.8 1025.9 0.0
21/11:56am 6.8 1.4 6.5 98 0.1 N 24 28 13 15 1024.9 - 0.0
21/11:42am 6.8 2.2 6.5 98 0.1 N 20 24 11 13 1025.1 - 0.0
21/11:30am 6.8 2.2 6.7 99 0.0 N 20 24 11 13 1025.2 - 0.0
21/11:21am 6.5 1.9 6.4 99 0.0 N 20 26 11 14 1025.2 - 0.0
21/11:02am 6.4 1.8 6.3 99 0.0 N 20 24 11 13 1025.4 - 0.0
21/11:00am 6.6 2.0 6.6 100 0.0 N 20 24 11 13 1025.4 - 0.0
21/10:44am 6.8 2.8 6.8 100 0.0 N 17 19 9 10 1025.5 - 0.0
21/10:39am 6.3 2.2 6.3 100 0.0 N 17 20 9 11 1025.5 - 0.0
21/10:30am 6.3 2.2 6.3 100 0.0 N 17 20 9 11 1025.5 - 0.0
21/10:29am 6.4 2.3 6.4 100 0.0 N 17 20 9 11 1025.5 - 0.0
21/10:00am 5.6 1.8 5.6 100 0.0 N 15 19 8 10 1025.5 - 0.0
21/09:30am 5.2 1.6 5.2 100 0.0 N 13 17 7 9 1025.5 - 0.0
21/09:24am 5.3 1.8 5.3 100 0.0 N 13 17 7 9 1025.4 - 0.0
21/09:18am 5.2 1.6 5.2 100 0.0 N 13 15 7 8 1025.4 - 0.0
21/09:00am 4.8 1.2 4.8 100 0.0 NNE 13 15 7 8 1025.3 1026.4 0.2
21/08:57am 4.7 1.0 4.7 100 0.0 NNE 13 15 7 8 1025.3 - 0.2
21/08:30am 4.6 0.9 4.6 100 0.0 NNE 13 17 7 9 1025.3 - 0.2
21/08:00am 4.3 0.6 4.3 100 0.0 NNE 13 15 7 8 1025.1 - 0.2
21/07:30am 4.6 1.3 4.6 100 0.0 NNE 11 13 6 7 1025.1 - 0.2
21/07:18am 4.7 1.8 4.7 100 0.0 NNE 9 11 5 6 1025.1 - 0.2
21/07:00am 4.9 2.4 4.9 100 0.0 NE 7 9 4 5 1024.9 - 0.2
21/06:30am 5.3 2.9 5.3 100 0.0 ESE 7 9 4 5 1024.9 - 0.2
21/06:15am 5.3 2.9 5.3 100 0.0 SE 7 7 4 4 1024.8 - 0.0
21/06:00am 5.2 2.4 5.2 100 0.0 SE 9 9 5 5 1024.8 1025.9 0.0

Other Formats:

Comma delimited format used in spreadsheet applications
http://www.bom.gov.au/fwo/IDV60801/IDV60801.94860.axf

JavaScript Object Notation format (JSON) in row-major order
http://www.bom.gov.au/fwo/IDV60801/IDV60801.94860.json